CheckWX is a tool to help pilots better visualize weather data.  It is not intended as a substitute for an official pre-flight weather briefing.

16:10:11 UTC

KHST METAR
Homestead ARB Airport
Homestead, Florida, USA
Current

1 hour ago

KHST 211456Z 30014G20KT 10SM SCT014 SCT023 25/21 A3005 RMK AO2A SLP179 T02470206 51015
Observed
Feb-21 @ 14:56 UTC
Wind
  • 300° at 14 KTS
  • Gusting to 20 KTS
Visibility
10 SM
Flight Rules
VFR
Cloud Levels
  • Scattered at 1,400' AGL
  • Scattered at 2,300' AGL
Temperature
25°C / 77°F
Dewpoint
21°C / 70°F
Humidity
79%
Altimeter
30.05" Hg
Pressure
1017.62 hPa
Previous

1 hour ago

KHST 211445Z 30011KT 10SM SCT014 24/21 A3005 RMK AO2A SLP179
Observed
Feb-21 @ 14:45 UTC
Wind
  • 300° at 11 KTS
Visibility
10 SM
Flight Rules
VFR
Cloud Levels
  • Scattered at 1,400' AGL
Temperature
24°C / 75°F
Dewpoint
21°C / 70°F
Humidity
83%
Altimeter
30.05" Hg
Pressure
1017.62 hPa
Previous

2 hours ago

KHST 211436Z AUTO 30011KT 10SM BKN014 24/21 A3005 RMK AO2 BKN V FEW SLP179
Observed
Feb-21 @ 14:36 UTC
Wind
  • 300° at 11 KTS
Visibility
10 SM
Flight Rules
MVFR
Cloud Levels
  • Broken at 1,400' AGL
Temperature
24°C / 75°F
Dewpoint
21°C / 70°F
Humidity
83%
Altimeter
30.05" Hg
Pressure
1017.62 hPa